sensor_id;sensor_type;location;lat;lon;timestamp;temperature;humidity
33831;DHT22;20137;48.834;8.732;2023-06-26T00:00:41;19.80;83.50
33831;DHT22;20137;48.834;8.732;2023-06-26T00:03:07;19.70;83.70
33831;DHT22;20137;48.834;8.732;2023-06-26T00:05:32;19.70;83.80
33831;DHT22;20137;48.834;8.732;2023-06-26T00:07:58;19.60;83.80
33831;DHT22;20137;48.834;8.732;2023-06-26T00:10:26;19.60;84.00
33831;DHT22;20137;48.834;8.732;2023-06-26T00:12:53;19.60;84.30
33831;DHT22;20137;48.834;8.732;2023-06-26T00:15:19;19.60;84.20
33831;DHT22;20137;48.834;8.732;2023-06-26T00:17:44;19.60;84.10
33831;DHT22;20137;48.834;8.732;2023-06-26T00:20:11;19.70;84.00
33831;DHT22;20137;48.834;8.732;2023-06-26T00:22:37;19.80;83.80
33831;DHT22;20137;48.834;8.732;2023-06-26T00:25:06;19.70;83.70
33831;DHT22;20137;48.834;8.732;2023-06-26T00:27:32;19.80;83.60
33831;DHT22;20137;48.834;8.732;2023-06-26T00:29:58;19.80;83.50
33831;DHT22;20137;48.834;8.732;2023-06-26T00:32:23;19.80;83.70
33831;DHT22;20137;48.834;8.732;2023-06-26T00:34:49;19.90;83.50
33831;DHT22;20137;48.834;8.732;2023-06-26T00:37:15;20.00;83.40
33831;DHT22;20137;48.834;8.732;2023-06-26T00:39:41;20.00;83.50
33831;DHT22;20137;48.834;8.732;2023-06-26T00:42:07;19.90;83.70
33831;DHT22;20137;48.834;8.732;2023-06-26T00:44:32;19.90;83.60
33831;DHT22;20137;48.834;8.732;2023-06-26T00:46:59;19.90;83.80
33831;DHT22;20137;48.834;8.732;2023-06-26T00:49:25;19.80;84.00
33831;DHT22;20137;48.834;8.732;2023-06-26T00:51:51;19.80;84.00
33831;DHT22;20137;48.834;8.732;2023-06-26T00:54:18;19.80;84.20
33831;DHT22;20137;48.834;8.732;2023-06-26T00:56:48;19.80;84.20
33831;DHT22;20137;48.834;8.732;2023-06-26T00:59:14;19.80;84.10
33831;DHT22;20137;48.834;8.732;2023-06-26T01:01:40;19.80;84.30
33831;DHT22;20137;48.834;8.732;2023-06-26T01:04:06;19.80;84.00
33831;DHT22;20137;48.834;8.732;2023-06-26T01:06:33;19.80;84.00
33831;DHT22;20137;48.834;8.732;2023-06-26T01:09:02;19.80;84.30
33831;DHT22;20137;48.834;8.732;2023-06-26T01:11:28;19.70;84.30
33831;DHT22;20137;48.834;8.732;2023-06-26T01:13:54;19.80;84.50
33831;DHT22;20137;48.834;8.732;2023-06-26T01:16:25;19.80;84.30
33831;DHT22;20137;48.834;8.732;2023-06-26T01:18:52;19.80;84.50
33831;DHT22;20137;48.834;8.732;2023-06-26T01:21:18;19.80;84.30
33831;DHT22;20137;48.834;8.732;2023-06-26T01:24:12;19.80;84.40
33831;DHT22;20137;48.834;8.732;2023-06-26T01:26:46;19.80;84.50
33831;DHT22;20137;48.834;8.732;2023-06-26T01:29:15;19.80;84.60
33831;DHT22;20137;48.834;8.732;2023-06-26T01:31:42;19.80;84.70
33831;DHT22;20137;48.834;8.732;2023-06-26T01:34:09;19.70;84.60
33831;DHT22;20137;48.834;8.732;2023-06-26T01:36:35;19.70;84.50
33831;DHT22;20137;48.834;8.732;2023-06-26T01:39:01;19.70;84.60
33831;DHT22;20137;48.834;8.732;2023-06-26T01:41:26;19.70;85.00
33831;DHT22;20137;48.834;8.732;2023-06-26T01:52:09;19.50;85.70
33831;DHT22;20137;48.834;8.732;2023-06-26T01:54:59;19.40;85.30
33831;DHT22;20137;48.834;8.732;2023-06-26T01:57:27;19.40;85.50
33831;DHT22;20137;48.834;8.732;2023-06-26T01:59:54;19.40;85.50
33831;DHT22;20137;48.834;8.732;2023-06-26T02:02:23;19.30;85.40
33831;DHT22;20137;48.834;8.732;2023-06-26T02:04:50;19.30;85.70
33831;DHT22;20137;48.834;8.732;2023-06-26T02:07:16;19.30;85.90
33831;DHT22;20137;48.834;8.732;2023-06-26T02:09:41;19.20;86.00
33831;DHT22;20137;48.834;8.732;2023-06-26T02:12:08;19.20;86.20
33831;DHT22;20137;48.834;8.732;2023-06-26T02:14:33;19.20;86.10
33831;DHT22;20137;48.834;8.732;2023-06-26T02:16:59;19.10;86.20
33831;DHT22;20137;48.834;8.732;2023-06-26T02:19:28;19.10;86.40
33831;DHT22;20137;48.834;8.732;2023-06-26T02:21:54;19.10;86.60
33831;DHT22;20137;48.834;8.732;2023-06-26T02:24:20;19.10;86.60
33831;DHT22;20137;48.834;8.732;2023-06-26T02:26:45;19.10;86.50
33831;DHT22;20137;48.834;8.732;2023-06-26T02:29:12;19.00;86.80
33831;DHT22;20137;48.834;8.732;2023-06-26T02:31:38;19.00;86.80
33831;DHT22;20137;48.834;8.732;2023-06-26T02:34:04;19.00;86.90
33831;DHT22;20137;48.834;8.732;2023-06-26T02:36:30;19.00;87.10
33831;DHT22;20137;48.834;8.732;2023-06-26T02:38:55;19.00;86.90
33831;DHT22;20137;48.834;8.732;2023-06-26T02:41:21;19.00;87.00
33831;DHT22;20137;48.834;8.732;2023-06-26T02:43:49;19.00;86.90
33831;DHT22;20137;48.834;8.732;2023-06-26T02:46:15;19.00;86.80
33831;DHT22;20137;48.834;8.732;2023-06-26T02:48:41;19.00;87.00
33831;DHT22;20137;48.834;8.732;2023-06-26T02:51:07;19.00;87.00
33831;DHT22;20137;48.834;8.732;2023-06-26T02:53:33;19.00;87.00
33831;DHT22;20137;48.834;8.732;2023-06-26T02:55:59;19.00;87.10
33831;DHT22;20137;48.834;8.732;2023-06-26T02:58:24;19.00;87.20
33831;DHT22;20137;48.834;8.732;2023-06-26T03:00:50;18.90;87.30
33831;DHT22;20137;48.834;8.732;2023-06-26T03:03:16;18.90;87.60
33831;DHT22;20137;48.834;8.732;2023-06-26T03:05:42;18.90;87.70
33831;DHT22;20137;48.834;8.732;2023-06-26T03:08:08;18.80;87.80
33831;DHT22;20137;48.834;8.732;2023-06-26T03:10:34;18.80;88.00
33831;DHT22;20137;48.834;8.732;2023-06-26T03:12:59;18.90;87.80
33831;DHT22;20137;48.834;8.732;2023-06-26T03:15:25;18.90;88.00
33831;DHT22;20137;48.834;8.732;2023-06-26T03:17:51;18.80;88.10
33831;DHT22;20137;48.834;8.732;2023-06-26T03:20:17;18.80;88.50
33831;DHT22;20137;48.834;8.732;2023-06-26T03:22:42;18.80;88.80
33831;DHT22;20137;48.834;8.732;2023-06-26T03:25:08;18.70;88.90
33831;DHT22;20137;48.834;8.732;2023-06-26T03:27:34;18.70;88.90
33831;DHT22;20137;48.834;8.732;2023-06-26T03:30:00;18.80;88.80
33831;DHT22;20137;48.834;8.732;2023-06-26T03:32:26;18.90;88.60
33831;DHT22;20137;48.834;8.732;2023-06-26T03:34:51;19.00;88.30
33831;DHT22;20137;48.834;8.732;2023-06-26T03:37:24;19.10;88.20
33831;DHT22;20137;48.834;8.732;2023-06-26T03:39:49;19.10;88.20
33831;DHT22;20137;48.834;8.732;2023-06-26T03:42:15;19.30;88.10
33831;DHT22;20137;48.834;8.732;2023-06-26T03:44:41;19.40;87.90
33831;DHT22;20137;48.834;8.732;2023-06-26T03:47:07;19.50;87.80
33831;DHT22;20137;48.834;8.732;2023-06-26T03:49:32;19.50;87.80
33831;DHT22;20137;48.834;8.732;2023-06-26T03:51:58;19.70;87.60
33831;DHT22;20137;48.834;8.732;2023-06-26T03:54:24;19.80;87.30
33831;DHT22;20137;48.834;8.732;2023-06-26T03:56:49;20.00;87.10
33831;DHT22;20137;48.834;8.732;2023-06-26T03:59:15;20.50;86.10
33831;DHT22;20137;48.834;8.732;2023-06-26T04:01:40;21.10;84.60
33831;DHT22;20137;48.834;8.732;2023-06-26T04:04:06;21.70;83.20
33831;DHT22;20137;48.834;8.732;2023-06-26T04:06:32;22.30;81.50
33831;DHT22;20137;48.834;8.732;2023-06-26T04:08:58;22.80;80.00
33831;DHT22;20137;48.834;8.732;2023-06-26T04:11:25;23.10;79.30
33831;DHT22;20137;48.834;8.732;2023-06-26T04:13:50;23.10;79.10
33831;DHT22;20137;48.834;8.732;2023-06-26T04:16:16;23.00;79.30
33831;DHT22;20137;48.834;8.732;2023-06-26T04:18:42;22.80;80.10
33831;DHT22;20137;48.834;8.732;2023-06-26T04:21:12;22.60;80.30
33831;DHT22;20137;48.834;8.732;2023-06-26T04:23:39;22.40;80.70
33831;DHT22;20137;48.834;8.732;2023-06-26T04:26:06;22.20;81.40
33831;DHT22;20137;48.834;8.732;2023-06-26T04:28:33;22.10;82.20
33831;DHT22;20137;48.834;8.732;2023-06-26T04:30:59;22.00;82.50
33831;DHT22;20137;48.834;8.732;2023-06-26T04:33:26;21.90;82.60
33831;DHT22;20137;48.834;8.732;2023-06-26T04:35:53;21.80;83.10
33831;DHT22;20137;48.834;8.732;2023-06-26T04:38:19;21.80;82.90
33831;DHT22;20137;48.834;8.732;2023-06-26T04:40:45;21.80;83.00
33831;DHT22;20137;48.834;8.732;2023-06-26T04:43:14;21.90;83.10
33831;DHT22;20137;48.834;8.732;2023-06-26T04:45:40;22.20;82.90
33831;DHT22;20137;48.834;8.732;2023-06-26T04:48:06;22.50;81.90
33831;DHT22;20137;48.834;8.732;2023-06-26T04:50:32;22.90;81.00
33831;DHT22;20137;48.834;8.732;2023-06-26T04:52:59;23.70;79.20
33831;DHT22;20137;48.834;8.732;2023-06-26T04:55:25;24.70;77.80
33831;DHT22;20137;48.834;8.732;2023-06-26T04:57:51;25.60;75.20
33831;DHT22;20137;48.834;8.732;2023-06-26T05:00:17;26.50;74.20
33831;DHT22;20137;48.834;8.732;2023-06-26T05:02:43;27.20;72.60
33831;DHT22;20137;48.834;8.732;2023-06-26T05:05:08;27.70;71.60
33831;DHT22;20137;48.834;8.732;2023-06-26T05:07:35;28.10;71.10
33831;DHT22;20137;48.834;8.732;2023-06-26T05:10:01;28.50;70.30
33831;DHT22;20137;48.834;8.732;2023-06-26T05:12:27;29.00;70.10
33831;DHT22;20137;48.834;8.732;2023-06-26T05:14:53;29.40;68.60
33831;DHT22;20137;48.834;8.732;2023-06-26T05:17:18;29.70;68.40
33831;DHT22;20137;48.834;8.732;2023-06-26T05:19:44;29.70;68.30
33831;DHT22;20137;48.834;8.732;2023-06-26T05:22:11;29.90;68.30
33831;DHT22;20137;48.834;8.732;2023-06-26T05:24:41;30.20;67.90
33831;DHT22;20137;48.834;8.732;2023-06-26T05:27:08;30.40;67.80
33831;DHT22;20137;48.834;8.732;2023-06-26T05:29:34;30.30;68.00
33831;DHT22;20137;48.834;8.732;2023-06-26T05:32:00;30.40;67.40
33831;DHT22;20137;48.834;8.732;2023-06-26T05:34:27;30.30;67.50
33831;DHT22;20137;48.834;8.732;2023-06-26T05:36:57;30.10;68.30
33831;DHT22;20137;48.834;8.732;2023-06-26T05:39:25;29.60;68.60
33831;DHT22;20137;48.834;8.732;2023-06-26T05:41:51;29.00;70.20
33831;DHT22;20137;48.834;8.732;2023-06-26T05:44:17;28.50;70.70
33831;DHT22;20137;48.834;8.732;2023-06-26T05:46:43;27.90;71.90
33831;DHT22;20137;48.834;8.732;2023-06-26T05:49:09;27.50;72.80
33831;DHT22;20137;48.834;8.732;2023-06-26T05:51:35;27.30;73.70
33831;DHT22;20137;48.834;8.732;2023-06-26T05:54:02;27.20;73.90
33831;DHT22;20137;48.834;8.732;2023-06-26T05:56:28;27.10;74.60
33831;DHT22;20137;48.834;8.732;2023-06-26T05:58:54;27.10;75.70
33831;DHT22;20137;48.834;8.732;2023-06-26T06:01:21;27.00;74.60
33831;DHT22;20137;48.834;8.732;2023-06-26T06:03:46;26.90;74.90
33831;DHT22;20137;48.834;8.732;2023-06-26T06:06:12;27.00;75.20
33831;DHT22;20137;48.834;8.732;2023-06-26T06:08:39;27.00;75.00
33831;DHT22;20137;48.834;8.732;2023-06-26T06:11:05;27.10;75.40
33831;DHT22;20137;48.834;8.732;2023-06-26T06:13:31;27.10;75.80
33831;DHT22;20137;48.834;8.732;2023-06-26T06:15:56;27.20;76.10
33831;DHT22;20137;48.834;8.732;2023-06-26T06:18:23;27.10;76.50
33831;DHT22;20137;48.834;8.732;2023-06-26T06:20:48;27.00;76.40
33831;DHT22;20137;48.834;8.732;2023-06-26T06:23:14;27.10;77.20
33831;DHT22;20137;48.834;8.732;2023-06-26T06:25:40;27.00;76.90
33831;DHT22;20137;48.834;8.732;2023-06-26T06:28:06;26.90;75.80
33831;DHT22;20137;48.834;8.732;2023-06-26T06:30:33;26.70;77.10
33831;DHT22;20137;48.834;8.732;2023-06-26T06:32:58;26.70;76.60
33831;DHT22;20137;48.834;8.732;2023-06-26T06:35:24;26.50;76.80
33831;DHT22;20137;48.834;8.732;2023-06-26T06:37:50;26.50;78.00
33831;DHT22;20137;48.834;8.732;2023-06-26T06:40:16;26.40;76.10
33831;DHT22;20137;48.834;8.732;2023-06-26T06:42:42;26.40;77.00
33831;DHT22;20137;48.834;8.732;2023-06-26T06:45:08;26.30;76.60
33831;DHT22;20137;48.834;8.732;2023-06-26T06:47:34;26.30;77.60
33831;DHT22;20137;48.834;8.732;2023-06-26T06:50:00;26.10;77.10
33831;DHT22;20137;48.834;8.732;2023-06-26T06:52:37;26.10;78.20
33831;DHT22;20137;48.834;8.732;2023-06-26T06:55:03;26.30;78.20
33831;DHT22;20137;48.834;8.732;2023-06-26T06:57:38;26.20;77.40
33831;DHT22;20137;48.834;8.732;2023-06-26T07:00:09;26.20;77.80
33831;DHT22;20137;48.834;8.732;2023-06-26T07:02:39;26.20;78.10
33831;DHT22;20137;48.834;8.732;2023-06-26T07:05:05;26.20;77.30
33831;DHT22;20137;48.834;8.732;2023-06-26T07:07:33;26.10;78.50
33831;DHT22;20137;48.834;8.732;2023-06-26T07:10:07;26.00;77.80
33831;DHT22;20137;48.834;8.732;2023-06-26T07:12:34;25.90;78.10
33831;DHT22;20137;48.834;8.732;2023-06-26T07:15:04;25.80;78.40
33831;DHT22;20137;48.834;8.732;2023-06-26T07:17:31;26.00;78.70
33831;DHT22;20137;48.834;8.732;2023-06-26T07:19:57;26.10;78.90
33831;DHT22;20137;48.834;8.732;2023-06-26T07:22:23;26.20;78.20
33831;DHT22;20137;48.834;8.732;2023-06-26T07:24:49;26.30;77.80
33831;DHT22;20137;48.834;8.732;2023-06-26T07:27:18;26.20;78.20
33831;DHT22;20137;48.834;8.732;2023-06-26T07:29:44;26.20;78.20
33831;DHT22;20137;48.834;8.732;2023-06-26T07:32:11;26.20;76.90
33831;DHT22;20137;48.834;8.732;2023-06-26T07:34:37;26.20;76.90
33831;DHT22;20137;48.834;8.732;2023-06-26T07:37:03;26.30;77.80
33831;DHT22;20137;48.834;8.732;2023-06-26T07:39:29;26.20;77.50
33831;DHT22;20137;48.834;8.732;2023-06-26T07:41:55;26.20;78.00
33831;DHT22;20137;48.834;8.732;2023-06-26T07:44:21;26.40;78.20
33831;DHT22;20137;48.834;8.732;2023-06-26T07:46:47;26.50;78.20
33831;DHT22;20137;48.834;8.732;2023-06-26T07:49:13;26.70;78.00
33831;DHT22;20137;48.834;8.732;2023-06-26T07:51:39;26.70;77.80
33831;DHT22;20137;48.834;8.732;2023-06-26T07:54:05;26.50;78.50
33831;DHT22;20137;48.834;8.732;2023-06-26T07:56:30;26.70;78.90
33831;DHT22;20137;48.834;8.732;2023-06-26T07:58:56;26.70;77.80
33831;DHT22;20137;48.834;8.732;2023-06-26T08:01:25;26.80;77.70
33831;DHT22;20137;48.834;8.732;2023-06-26T08:03:51;26.80;77.10
33831;DHT22;20137;48.834;8.732;2023-06-26T08:06:17;26.70;79.00
33831;DHT22;20137;48.834;8.732;2023-06-26T08:08:44;26.90;79.30
33831;DHT22;20137;48.834;8.732;2023-06-26T08:11:10;26.90;78.00
33831;DHT22;20137;48.834;8.732;2023-06-26T08:13:35;26.90;79.00
33831;DHT22;20137;48.834;8.732;2023-06-26T08:16:01;27.00;78.10
33831;DHT22;20137;48.834;8.732;2023-06-26T08:18:27;27.00;77.70
33831;DHT22;20137;48.834;8.732;2023-06-26T08:20:52;26.90;77.60
33831;DHT22;20137;48.834;8.732;2023-06-26T08:23:18;27.10;78.20
33831;DHT22;20137;48.834;8.732;2023-06-26T08:25:44;27.30;77.70
33831;DHT22;20137;48.834;8.732;2023-06-26T08:28:10;27.20;78.30
33831;DHT22;20137;48.834;8.732;2023-06-26T08:30:35;27.30;79.10
33831;DHT22;20137;48.834;8.732;2023-06-26T08:33:01;27.40;77.00
33831;DHT22;20137;48.834;8.732;2023-06-26T08:35:31;27.30;77.10
33831;DHT22;20137;48.834;8.732;2023-06-26T08:37:56;27.20;77.60
33831;DHT22;20137;48.834;8.732;2023-06-26T08:40:22;27.20;78.30
33831;DHT22;20137;48.834;8.732;2023-06-26T08:42:49;27.30;77.70
33831;DHT22;20137;48.834;8.732;2023-06-26T08:45:18;27.40;77.80
33831;DHT22;20137;48.834;8.732;2023-06-26T08:47:45;27.60;78.20
33831;DHT22;20137;48.834;8.732;2023-06-26T08:50:17;27.90;76.60
33831;DHT22;20137;48.834;8.732;2023-06-26T08:55:40;28.20;76.20
33831;DHT22;20137;48.834;8.732;2023-06-26T08:58:07;28.00;76.80
33831;DHT22;20137;48.834;8.732;2023-06-26T09:00:33;27.90;77.50
33831;DHT22;20137;48.834;8.732;2023-06-26T09:02:59;28.00;76.60
33831;DHT22;20137;48.834;8.732;2023-06-26T09:05:26;27.90;77.20
33831;DHT22;20137;48.834;8.732;2023-06-26T09:07:53;28.10;76.60
33831;DHT22;20137;48.834;8.732;2023-06-26T09:10:21;28.40;75.60
33831;DHT22;20137;48.834;8.732;2023-06-26T09:12:47;28.50;76.50
33831;DHT22;20137;48.834;8.732;2023-06-26T09:15:14;28.40;75.90
33831;DHT22;20137;48.834;8.732;2023-06-26T09:17:41;28.10;75.50
33831;DHT22;20137;48.834;8.732;2023-06-26T09:20:08;28.00;75.90
33831;DHT22;20137;48.834;8.732;2023-06-26T09:22:36;28.20;76.90
33831;DHT22;20137;48.834;8.732;2023-06-26T09:25:05;28.10;77.30
33831;DHT22;20137;48.834;8.732;2023-06-26T09:27:31;28.10;78.20
33831;DHT22;20137;48.834;8.732;2023-06-26T09:29:57;28.00;79.80
33831;DHT22;20137;48.834;8.732;2023-06-26T09:32:24;28.00;79.30
33831;DHT22;20137;48.834;8.732;2023-06-26T09:34:52;28.10;80.00
33831;DHT22;20137;48.834;8.732;2023-06-26T09:37:19;28.00;79.80
33831;DHT22;20137;48.834;8.732;2023-06-26T09:39:45;27.90;80.70
33831;DHT22;20137;48.834;8.732;2023-06-26T09:42:14;28.00;81.80
33831;DHT22;20137;48.834;8.732;2023-06-26T09:44:47;27.20;81.80
33831;DHT22;20137;48.834;8.732;2023-06-26T09:47:16;27.00;83.60
33831;DHT22;20137;48.834;8.732;2023-06-26T09:49:45;27.00;83.50
33831;DHT22;20137;48.834;8.732;2023-06-26T09:52:15;27.20;82.40
33831;DHT22;20137;48.834;8.732;2023-06-26T09:54:43;26.90;81.90
33831;DHT22;20137;48.834;8.732;2023-06-26T09:57:13;26.70;82.20
33831;DHT22;20137;48.834;8.732;2023-06-26T09:59:41;26.30;82.50
33831;DHT22;20137;48.834;8.732;2023-06-26T10:02:07;26.00;84.90
33831;DHT22;20137;48.834;8.732;2023-06-26T10:04:35;26.30;84.10
33831;DHT22;20137;48.834;8.732;2023-06-26T10:07:10;26.50;84.10
33831;DHT22;20137;48.834;8.732;2023-06-26T10:09:40;26.40;84.10
33831;DHT22;20137;48.834;8.732;2023-06-26T10:12:11;26.20;84.70
33831;DHT22;20137;48.834;8.732;2023-06-26T10:14:41;26.40;84.80
33831;DHT22;20137;48.834;8.732;2023-06-26T10:17:10;26.20;85.20
33831;DHT22;20137;48.834;8.732;2023-06-26T10:19:38;26.30;86.50
33831;DHT22;20137;48.834;8.732;2023-06-26T10:22:05;26.40;85.40
33831;DHT22;20137;48.834;8.732;2023-06-26T10:24:33;26.70;85.40
33831;DHT22;20137;48.834;8.732;2023-06-26T10:27:20;26.70;86.20
33831;DHT22;20137;48.834;8.732;2023-06-26T10:29:49;26.90;86.50
33831;DHT22;20137;48.834;8.732;2023-06-26T10:32:17;27.00;85.90
33831;DHT22;20137;48.834;8.732;2023-06-26T10:34:43;26.90;85.90
33831;DHT22;20137;48.834;8.732;2023-06-26T10:37:09;27.10;87.20
33831;DHT22;20137;48.834;8.732;2023-06-26T10:39:47;27.20;86.10
33831;DHT22;20137;48.834;8.732;2023-06-26T10:42:13;27.10;85.60
33831;DHT22;20137;48.834;8.732;2023-06-26T10:44:41;27.10;86.60
33831;DHT22;20137;48.834;8.732;2023-06-26T10:47:32;27.20;86.40
33831;DHT22;20137;48.834;8.732;2023-06-26T10:50:15;27.00;86.80
33831;DHT22;20137;48.834;8.732;2023-06-26T10:52:41;27.10;86.60
33831;DHT22;20137;48.834;8.732;2023-06-26T10:55:08;27.00;86.40
33831;DHT22;20137;48.834;8.732;2023-06-26T10:57:36;27.10;86.10
33831;DHT22;20137;48.834;8.732;2023-06-26T11:00:09;27.20;86.40
33831;DHT22;20137;48.834;8.732;2023-06-26T11:02:49;27.10;86.80
33831;DHT22;20137;48.834;8.732;2023-06-26T11:05:27;26.90;85.90
33831;DHT22;20137;48.834;8.732;2023-06-26T11:08:09;27.10;86.90
33831;DHT22;20137;48.834;8.732;2023-06-26T11:10:54;27.00;87.30
33831;DHT22;20137;48.834;8.732;2023-06-26T11:13:21;26.80;88.40
33831;DHT22;20137;48.834;8.732;2023-06-26T11:15:49;26.90;90.00
33831;DHT22;20137;48.834;8.732;2023-06-26T11:18:15;26.70;88.50
33831;DHT22;20137;48.834;8.732;2023-06-26T11:20:41;26.40;90.50
33831;DHT22;20137;48.834;8.732;2023-06-26T11:23:08;26.70;90.00
33831;DHT22;20137;48.834;8.732;2023-06-26T11:25:38;26.60;89.30
33831;DHT22;20137;48.834;8.732;2023-06-26T11:28:05;26.40;90.90
33831;DHT22;20137;48.834;8.732;2023-06-26T11:30:31;26.40;90.20
33831;DHT22;20137;48.834;8.732;2023-06-26T11:33:08;26.60;90.30
33831;DHT22;20137;48.834;8.732;2023-06-26T11:35:34;26.60;90.60
33831;DHT22;20137;48.834;8.732;2023-06-26T11:38:02;26.50;90.80
33831;DHT22;20137;48.834;8.732;2023-06-26T11:40:36;26.60;90.40
33831;DHT22;20137;48.834;8.732;2023-06-26T11:43:02;26.40;90.40
33831;DHT22;20137;48.834;8.732;2023-06-26T11:45:32;26.10;90.50
33831;DHT22;20137;48.834;8.732;2023-06-26T11:47:59;26.10;90.90
33831;DHT22;20137;48.834;8.732;2023-06-26T11:50:26;26.20;90.80
33831;DHT22;20137;48.834;8.732;2023-06-26T11:52:56;26.10;90.60
33831;DHT22;20137;48.834;8.732;2023-06-26T11:55:26;26.10;90.80
33831;DHT22;20137;48.834;8.732;2023-06-26T11:57:56;25.90;90.40
33831;DHT22;20137;48.834;8.732;2023-06-26T12:00:22;25.80;90.20
33831;DHT22;20137;48.834;8.732;2023-06-26T12:02:48;25.70;90.70
33831;DHT22;20137;48.834;8.732;2023-06-26T12:05:18;25.70;90.10
33831;DHT22;20137;48.834;8.732;2023-06-26T12:07:46;25.90;90.70
33831;DHT22;20137;48.834;8.732;2023-06-26T12:10:13;25.80;90.40
33831;DHT22;20137;48.834;8.732;2023-06-26T12:12:40;25.70;90.50
33831;DHT22;20137;48.834;8.732;2023-06-26T12:15:08;25.80;91.30
33831;DHT22;20137;48.834;8.732;2023-06-26T12:17:37;26.10;90.10
33831;DHT22;20137;48.834;8.732;2023-06-26T12:20:04;26.10;88.80
33831;DHT22;20137;48.834;8.732;2023-06-26T12:22:34;26.10;89.70
33831;DHT22;20137;48.834;8.732;2023-06-26T12:25:01;26.20;89.20
33831;DHT22;20137;48.834;8.732;2023-06-26T12:27:27;26.40;89.00
33831;DHT22;20137;48.834;8.732;2023-06-26T12:29:54;26.10;87.40
33831;DHT22;20137;48.834;8.732;2023-06-26T12:32:23;25.90;89.10
33831;DHT22;20137;48.834;8.732;2023-06-26T12:34:49;26.10;87.80
33831;DHT22;20137;48.834;8.732;2023-06-26T12:37:15;26.30;88.50
33831;DHT22;20137;48.834;8.732;2023-06-26T12:39:55;26.40;88.50
33831;DHT22;20137;48.834;8.732;2023-06-26T12:42:22;26.60;87.70
33831;DHT22;20137;48.834;8.732;2023-06-26T12:44:49;26.70;85.50
33831;DHT22;20137;48.834;8.732;2023-06-26T12:47:24;26.70;85.10
33831;DHT22;20137;48.834;8.732;2023-06-26T12:49:50;26.60;86.50
33831;DHT22;20137;48.834;8.732;2023-06-26T12:52:17;26.40;86.40
33831;DHT22;20137;48.834;8.732;2023-06-26T12:54:47;26.40;85.20
33831;DHT22;20137;48.834;8.732;2023-06-26T12:57:17;26.10;85.90
33831;DHT22;20137;48.834;8.732;2023-06-26T12:59:43;25.90;85.70
33831;DHT22;20137;48.834;8.732;2023-06-26T13:02:09;25.90;85.50
33831;DHT22;20137;48.834;8.732;2023-06-26T13:04:37;26.30;85.80
33831;DHT22;20137;48.834;8.732;2023-06-26T13:07:06;26.40;83.80
33831;DHT22;20137;48.834;8.732;2023-06-26T13:09:33;26.00;84.50
33831;DHT22;20137;48.834;8.732;2023-06-26T13:12:00;25.80;83.80
33831;DHT22;20137;48.834;8.732;2023-06-26T13:14:30;26.10;84.30
33831;DHT22;20137;48.834;8.732;2023-06-26T13:16:56;26.30;82.60
33831;DHT22;20137;48.834;8.732;2023-06-26T13:19:22;26.40;82.50
33831;DHT22;20137;48.834;8.732;2023-06-26T13:21:47;26.20;82.40
33831;DHT22;20137;48.834;8.732;2023-06-26T13:24:13;25.80;82.40
33831;DHT22;20137;48.834;8.732;2023-06-26T13:26:39;25.90;84.10
33831;DHT22;20137;48.834;8.732;2023-06-26T13:29:05;26.20;83.30
33831;DHT22;20137;48.834;8.732;2023-06-26T13:31:32;26.40;82.00
33831;DHT22;20137;48.834;8.732;2023-06-26T13:34:02;26.60;80.90
33831;DHT22;20137;48.834;8.732;2023-06-26T13:36:31;26.70;82.20
33831;DHT22;20137;48.834;8.732;2023-06-26T13:38:59;26.90;81.30
33831;DHT22;20137;48.834;8.732;2023-06-26T13:41:25;27.20;80.00
33831;DHT22;20137;48.834;8.732;2023-06-26T13:43:52;27.40;81.20
33831;DHT22;20137;48.834;8.732;2023-06-26T13:46:18;27.40;80.30
33831;DHT22;20137;48.834;8.732;2023-06-26T13:48:44;27.40;82.00
33831;DHT22;20137;48.834;8.732;2023-06-26T13:51:10;27.10;79.40
33831;DHT22;20137;48.834;8.732;2023-06-26T13:53:36;26.60;81.10
33831;DHT22;20137;48.834;8.732;2023-06-26T13:56:02;26.50;81.70
33831;DHT22;20137;48.834;8.732;2023-06-26T13:58:27;26.50;82.50
33831;DHT22;20137;48.834;8.732;2023-06-26T14:00:57;26.30;83.10
33831;DHT22;20137;48.834;8.732;2023-06-26T14:03:23;26.40;82.20
33831;DHT22;20137;48.834;8.732;2023-06-26T14:05:49;26.40;83.50
33831;DHT22;20137;48.834;8.732;2023-06-26T14:08:15;26.70;83.90
33831;DHT22;20137;48.834;8.732;2023-06-26T14:10:41;26.70;81.90
33831;DHT22;20137;48.834;8.732;2023-06-26T14:13:07;26.50;81.70
33831;DHT22;20137;48.834;8.732;2023-06-26T14:15:34;26.30;81.70
33831;DHT22;20137;48.834;8.732;2023-06-26T14:18:00;26.10;83.70
33831;DHT22;20137;48.834;8.732;2023-06-26T14:20:28;26.50;83.70
33831;DHT22;20137;48.834;8.732;2023-06-26T14:22:54;26.80;82.10
33831;DHT22;20137;48.834;8.732;2023-06-26T14:25:19;26.70;81.90
33831;DHT22;20137;48.834;8.732;2023-06-26T14:27:45;26.50;82.10
33831;DHT22;20137;48.834;8.732;2023-06-26T14:30:11;26.50;81.20
33831;DHT22;20137;48.834;8.732;2023-06-26T14:32:40;26.20;81.60
33831;DHT22;20137;48.834;8.732;2023-06-26T14:35:06;25.90;82.00
33831;DHT22;20137;48.834;8.732;2023-06-26T14:37:32;25.90;82.90
33831;DHT22;20137;48.834;8.732;2023-06-26T14:39:58;26.20;81.90
33831;DHT22;20137;48.834;8.732;2023-06-26T14:42:24;26.50;81.90
33831;DHT22;20137;48.834;8.732;2023-06-26T14:44:50;26.70;80.30
33831;DHT22;20137;48.834;8.732;2023-06-26T14:47:17;26.90;79.80
33831;DHT22;20137;48.834;8.732;2023-06-26T14:49:43;26.80;78.90
33831;DHT22;20137;48.834;8.732;2023-06-26T14:52:08;27.10;78.20
33831;DHT22;20137;48.834;8.732;2023-06-26T14:54:35;27.10;78.50
33831;DHT22;20137;48.834;8.732;2023-06-26T14:57:05;27.30;78.90
33831;DHT22;20137;48.834;8.732;2023-06-26T14:59:31;27.30;77.80
33831;DHT22;20137;48.834;8.732;2023-06-26T15:01:56;27.10;78.70
33831;DHT22;20137;48.834;8.732;2023-06-26T15:04:22;26.90;78.60
33831;DHT22;20137;48.834;8.732;2023-06-26T15:06:49;27.00;78.80
33831;DHT22;20137;48.834;8.732;2023-06-26T15:09:14;26.80;79.00
33831;DHT22;20137;48.834;8.732;2023-06-26T15:11:40;26.80;80.30
33831;DHT22;20137;48.834;8.732;2023-06-26T15:14:06;26.70;79.80
33831;DHT22;20137;48.834;8.732;2023-06-26T15:16:32;26.50;79.90
33831;DHT22;20137;48.834;8.732;2023-06-26T15:18:57;26.70;80.00
33831;DHT22;20137;48.834;8.732;2023-06-26T15:21:23;26.40;80.20
33831;DHT22;20137;48.834;8.732;2023-06-26T15:23:50;26.00;80.20
33831;DHT22;20137;48.834;8.732;2023-06-26T15:26:16;26.00;80.40
33831;DHT22;20137;48.834;8.732;2023-06-26T15:28:42;26.10;81.00
33831;DHT22;20137;48.834;8.732;2023-06-26T15:31:07;26.40;80.30
33831;DHT22;20137;48.834;8.732;2023-06-26T15:33:33;25.90;80.00
33831;DHT22;20137;48.834;8.732;2023-06-26T15:35:59;25.50;79.90
33831;DHT22;20137;48.834;8.732;2023-06-26T15:38:25;25.50;80.70
33831;DHT22;20137;48.834;8.732;2023-06-26T15:40:52;25.60;81.50